Time;durP1;ratioP1;P1;durP2;ratioP2;P2;SDS_P1;SDS_P2;PMS_P1;PMS_P2;Temp;Humidity;BMP_temperature;BMP_pressure;BME280_temperature;BME280_humidity;BME280_pressure;Samples;Min_cycle;Max_cycle;Signal;HPM_P1;HPM_P2
2021/07/14 00:00:00;;;;;;;61.33;28.33;;;;;;;;;;5072939;28;20021;-92
2021/07/14 00:02:25;;;;;;;54.40;27.38;;;;;;;;;;5053371;28;20096;-90
2021/07/14 00:04:51;;;;;;;68.47;32.15;;;;;;;;;;5053501;28;20035;-90
2021/07/14 00:07:16;;;;;;;61.20;29.27;;;;;;;;;;5053423;28;20388;-91
2021/07/14 00:09:41;;;;;;;65.50;29.75;;;;;;;;;;5053493;28;20017;-90
2021/07/14 00:12:09;;;;;;;59.70;29.85;;;;;;;;;;5086809;28;20040;-91
2021/07/14 00:14:46;;;;;;;64.70;28.23;;;;;;;;;;5053236;28;20112;-92
2021/07/14 00:22:20;;;;;;;71.07;33.30;;;;;;;;;;5054715;28;20031;-91
2021/07/14 00:24:47;;;;;;;72.30;29.17;;;;;;;;;;5054114;28;20005;-91
2021/07/14 00:27:12;;;;;;;61.00;28.25;;;;;;;;;;5053238;28;20112;-92
2021/07/14 00:29:47;;;;;;;69.35;28.67;;;;;;;;;;5052875;28;20049;-92
2021/07/14 00:32:13;;;;;;;73.32;27.88;;;;;;;;;;5054116;28;20071;-91
2021/07/14 00:34:38;;;;;;;67.55;30.38;;;;;;;;;;5052562;28;20024;-91
2021/07/14 00:37:03;;;;;;;69.05;31.67;;;;;;;;;;5054187;28;20099;-91
2021/07/14 00:39:28;;;;;;;70.68;31.27;;;;;;;;;;5052901;28;20528;-91
2021/07/14 00:41:53;;;;;;;64.30;28.05;;;;;;;;;;5052883;28;20029;-91
2021/07/14 00:44:19;;;;;;;63.38;28.95;;;;;;;;;;5053977;28;20021;-92
2021/07/14 00:46:46;;;;;;;59.28;29.80;;;;;;;;;;5052517;28;20472;-91
2021/07/14 00:49:12;;;;;;;59.00;28.40;;;;;;;;;;5086474;28;20024;-91
2021/07/14 00:51:37;;;;;;;62.10;30.92;;;;;;;;;;5052066;28;20112;-90
2021/07/14 00:54:03;;;;;;;64.53;30.55;;;;;;;;;;5053612;28;20021;-91
2021/07/14 00:56:28;;;;;;;60.20;28.10;;;;;;;;;;5052387;28;20021;-91
2021/07/14 00:58:55;;;;;;;59.00;27.98;;;;;;;;;;5041684;28;20107;-91
2021/07/14 01:01:20;;;;;;;63.60;27.38;;;;;;;;;;5052654;28;20029;-91
2021/07/14 01:03:48;;;;;;;48.03;24.95;;;;;;;;;;5053806;28;20471;-91
2021/07/14 01:06:16;;;;;;;57.08;25.63;;;;;;;;;;5052668;28;20013;-90
2021/07/14 01:08:41;;;;;;;53.03;25.73;;;;;;;;;;5052521;28;20086;-90
2021/07/14 01:11:08;;;;;;;53.38;26.00;;;;;;;;;;5053883;28;20021;-91
2021/07/14 01:13:36;;;;;;;53.42;25.13;;;;;;;;;;5053340;28;20038;-91
2021/07/14 01:16:03;;;;;;;55.50;26.23;;;;;;;;;;5052240;28;20025;-91
2021/07/14 01:18:28;;;;;;;59.55;27.33;;;;;;;;;;5052247;28;20052;-91
2021/07/14 01:20:58;;;;;;;52.97;26.35;;;;;;;;;;5052208;28;20051;-91
2021/07/14 01:23:24;;;;;;;58.65;27.13;;;;;;;;;;5052562;28;20017;-91
2021/07/14 01:25:52;;;;;;;61.40;26.65;;;;;;;;;;5053382;28;20041;-91
2021/07/14 01:28:18;;;;;;;47.92;24.48;;;;;;;;;;5053486;28;20028;-91
2021/07/14 01:30:44;;;;;;;55.97;25.20;;;;;;;;;;5054068;28;20025;-91
2021/07/14 01:33:10;;;;;;;55.58;26.90;;;;;;;;;;5052117;28;20028;-91
2021/07/14 01:35:38;;;;;;;55.92;25.90;;;;;;;;;;5052291;28;20503;-91
2021/07/14 01:38:05;;;;;;;61.53;28.17;;;;;;;;;;5052426;28;20048;-91
2021/07/14 01:40:31;;;;;;;54.88;26.25;;;;;;;;;;5085833;28;20009;-92
2021/07/14 01:42:57;;;;;;;67.97;27.55;;;;;;;;;;5056208;28;20023;-91
2021/07/14 01:45:30;;;;;;;52.65;27.20;;;;;;;;;;5063825;28;20024;-91
2021/07/14 01:47:56;;;;;;;64.20;27.48;;;;;;;;;;5049147;28;20025;-91
2021/07/14 01:50:22;;;;;;;62.38;28.63;;;;;;;;;;5064995;28;20476;-91
2021/07/14 01:52:48;;;;;;;60.58;27.50;;;;;;;;;;5051983;28;20063;-91
2021/07/14 01:55:13;;;;;;;64.68;29.20;;;;;;;;;;5052121;28;20070;-92
2021/07/14 01:57:39;;;;;;;67.20;32.75;;;;;;;;;;5051919;28;20071;-91
2021/07/14 02:00:05;;;;;;;50.55;22.02;;;;;;;;;;5052053;28;20024;-91
2021/07/14 02:02:34;;;;;;;68.30;26.27;;;;;;;;;;5051780;28;20024;-91
2021/07/14 02:04:59;;;;;;;59.40;27.30;;;;;;;;;;5056921;28;20025;-92
2021/07/14 02:07:26;;;;;;;55.08;24.15;;;;;;;;;;5055483;28;20032;-91
2021/07/14 02:09:52;;;;;;;60.83;28.13;;;;;;;;;;5055443;28;20075;-91
2021/07/14 02:12:19;;;;;;;63.85;28.73;;;;;;;;;;5055712;28;20474;-92
2021/07/14 02:14:47;;;;;;;71.22;30.35;;;;;;;;;;5069588;28;20074;-92
2021/07/14 02:17:14;;;;;;;54.80;23.90;;;;;;;;;;5055243;28;20024;-92
2021/07/14 02:19:41;;;;;;;60.17;26.58;;;;;;;;;;5069552;28;20016;-91
2021/07/14 02:22:06;;;;;;;68.28;24.45;;;;;;;;;;5056426;28;20028;-91
2021/07/14 02:24:33;;;;;;;59.15;24.67;;;;;;;;;;5071612;28;20443;-91
2021/07/14 02:27:04;;;;;;;55.97;23.95;;;;;;;;;;5068627;28;20055;-91
2021/07/14 02:29:29;;;;;;;56.85;24.70;;;;;;;;;;5055599;28;20048;-91
2021/07/14 02:31:55;;;;;;;66.10;25.58;;;;;;;;;;5058117;28;20016;-92
2021/07/14 02:34:20;;;;;;;58.72;24.05;;;;;;;;;;5055097;28;20017;-90
2021/07/14 02:36:45;;;;;;;57.90;25.00;;;;;;;;;;5058477;28;20027;-91
2021/07/14 02:39:11;;;;;;;56.78;23.20;;;;;;;;;;5065938;28;20033;-91
2021/07/14 02:41:49;;;;;;;43.40;19.58;;;;;;;;;;5054546;28;20472;-91
2021/07/14 02:44:15;;;;;;;45.20;21.02;;;;;;;;;;5058319;28;20025;-91
2021/07/14 02:46:45;;;;;;;49.03;21.88;;;;;;;;;;5059780;28;20025;-90
2021/07/14 02:49:11;;;;;;;52.20;23.80;;;;;;;;;;5056711;28;20048;-91
2021/07/14 02:51:38;;;;;;;47.53;22.33;;;;;;;;;;5055525;28;20040;-90
2021/07/14 02:54:09;;;;;;;48.50;23.05;;;;;;;;;;5055866;28;20476;-91
2021/07/14 02:56:35;;;;;;;45.67;21.20;;;;;;;;;;5054745;28;20017;-91
2021/07/14 02:59:03;;;;;;;52.67;22.55;;;;;;;;;;5055808;28;20120;-91
2021/07/14 03:01:29;;;;;;;45.75;21.15;;;;;;;;;;5055910;28;20054;-90
2021/07/14 03:03:56;;;;;;;47.83;20.88;;;;;;;;;;5054270;28;20107;-91
2021/07/14 03:06:22;;;;;;;52.88;21.63;;;;;;;;;;5054835;28;20016;-91
2021/07/14 03:08:49;;;;;;;53.47;22.17;;;;;;;;;;5068807;28;20020;-91
2021/07/14 03:11:15;;;;;;;49.90;20.73;;;;;;;;;;5070957;28;20082;-90
2021/07/14 03:13:43;;;;;;;50.78;21.50;;;;;;;;;;5062259;28;20040;-91
2021/07/14 03:16:08;;;;;;;50.80;24.38;;;;;;;;;;5053740;28;20107;-91
2021/07/14 03:18:34;;;;;;;59.38;23.88;;;;;;;;;;5055233;28;20544;-91
2021/07/14 03:21:01;;;;;;;55.72;22.02;;;;;;;;;;5054245;28;20021;-90
2021/07/14 03:23:27;;;;;;;51.80;23.02;;;;;;;;;;5054253;28;20067;-90
2021/07/14 03:25:53;;;;;;;55.20;23.05;;;;;;;;;;5054227;28;20021;-91
2021/07/14 03:28:19;;;;;;;53.53;23.23;;;;;;;;;;5055427;28;20028;-90
2021/07/14 03:30:45;;;;;;;57.35;22.70;;;;;;;;;;5053972;28;20116;-90
2021/07/14 03:33:10;;;;;;;52.90;20.02;;;;;;;;;;5060636;28;20048;-90
2021/07/14 03:35:37;;;;;;;56.38;22.38;;;;;;;;;;5053997;28;20036;-91
2021/07/14 03:38:05;;;;;;;54.15;22.90;;;;;;;;;;5053601;28;20083;-90
2021/07/14 03:40:31;;;;;;;55.97;22.83;;;;;;;;;;5053912;28;20111;-90
2021/07/14 03:42:57;;;;;;;62.05;23.20;;;;;;;;;;5054951;28;20070;-90
2021/07/14 03:45:23;;;;;;;60.05;23.23;;;;;;;;;;5067954;28;20033;-91
2021/07/14 03:47:49;;;;;;;47.55;21.13;;;;;;;;;;5054440;28;20028;-91
2021/07/14 03:50:15;;;;;;;62.40;25.98;;;;;;;;;;5058223;28;20364;-90
2021/07/14 03:52:40;;;;;;;58.67;23.42;;;;;;;;;;5054335;28;20024;-91
2021/07/14 03:55:09;;;;;;;50.88;21.85;;;;;;;;;;5053855;28;20022;-91
2021/07/14 03:57:34;;;;;;;57.20;23.58;;;;;;;;;;5053605;28;20472;-90
2021/07/14 03:59:59;;;;;;;51.22;22.55;;;;;;;;;;5053315;28;20092;-90
2021/07/14 04:02:25;;;;;;;55.90;23.08;;;;;;;;;;5053163;28;20078;-90
2021/07/14 04:04:51;;;;;;;56.70;23.08;;;;;;;;;;5062801;28;20032;-90
2021/07/14 04:07:19;;;;;;;55.35;22.08;;;;;;;;;;5057566;28;20108;-90
2021/07/14 04:09:45;;;;;;;54.47;22.23;;;;;;;;;;5062201;28;20059;-90
2021/07/14 04:12:11;;;;;;;55.40;23.58;;;;;;;;;;5059274;28;20036;-91
2021/07/14 04:14:36;;;;;;;59.20;24.25;;;;;;;;;;5058700;28;20058;-90
2021/07/14 04:17:02;;;;;;;52.80;20.50;;;;;;;;;;5058195;28;20076;-90
2021/07/14 04:19:27;;;;;;;53.45;22.60;;;;;;;;;;5053170;28;20017;-90
2021/07/14 04:21:53;;;;;;;60.80;23.38;;;;;;;;;;5052861;28;20021;-90
2021/07/14 04:24:18;;;;;;;52.85;22.90;;;;;;;;;;5056790;28;20110;-91
2021/07/14 04:26:44;;;;;;;39.33;20.10;;;;;;;;;;5059751;28;20028;-90
2021/07/14 04:29:09;;;;;;;50.65;22.60;;;;;;;;;;5074190;28;20083;-90
2021/07/14 04:31:35;;;;;;;58.50;23.52;;;;;;;;;;5058926;28;20104;-91
2021/07/14 04:34:01;;;;;;;61.30;24.42;;;;;;;;;;5061247;28;20028;-92
2021/07/14 04:36:26;;;;;;;59.45;26.05;;;;;;;;;;5053822;28;20052;-90
2021/07/14 04:38:51;;;;;;;56.38;23.50;;;;;;;;;;5052895;28;20025;-91
2021/07/14 04:41:16;;;;;;;57.60;24.02;;;;;;;;;;5053258;28;20020;-91
2021/07/14 04:43:42;;;;;;;65.07;25.40;;;;;;;;;;5052022;28;20429;-91
2021/07/14 04:46:07;;;;;;;55.35;23.77;;;;;;;;;;5057877;28;20029;-90
2021/07/14 04:48:32;;;;;;;70.75;27.33;;;;;;;;;;5072968;28;20094;-91
2021/07/14 04:50:57;;;;;;;63.80;25.52;;;;;;;;;;5062431;28;20051;-90
2021/07/14 04:53:23;;;;;;;59.85;22.83;;;;;;;;;;5053888;28;20013;-91
2021/07/14 04:55:48;;;;;;;79.25;27.85;;;;;;;;;;5052478;28;20017;-91
2021/07/14 04:58:13;;;;;;;69.05;26.80;;;;;;;;;;5052405;28;20032;-90
2021/07/14 05:00:38;;;;;;;66.28;27.50;;;;;;;;;;5055346;28;20005;-91
2021/07/14 05:03:04;;;;;;;61.75;25.52;;;;;;;;;;5056897;28;20555;-91
2021/07/14 05:05:29;;;;;;;79.90;29.90;;;;;;;;;;5066534;28;20023;-91
2021/07/14 05:07:54;;;;;;;68.15;26.70;;;;;;;;;;5059317;28;20055;-91
2021/07/14 05:10:21;;;;;;;76.68;29.83;;;;;;;;;;5059697;28;20017;-91
2021/07/14 05:12:49;;;;;;;65.75;28.15;;;;;;;;;;5052376;28;20063;-91
2021/07/14 05:15:14;;;;;;;81.93;28.92;;;;;;;;;;5052201;28;20033;-91
2021/07/14 05:17:39;;;;;;;74.85;27.15;;;;;;;;;;5052190;28;20380;-91
2021/07/14 05:20:05;;;;;;;76.10;29.00;;;;;;;;;;5052325;28;20063;-90
2021/07/14 05:22:31;;;;;;;74.13;29.35;;;;;;;;;;5053274;28;20025;-91
2021/07/14 05:24:56;;;;;;;72.55;28.45;;;;;;;;;;5052391;28;20437;-91
2021/07/14 05:27:21;;;;;;;65.53;27.27;;;;;;;;;;5053500;28;20025;-91
2021/07/14 05:29:46;;;;;;;75.30;27.63;;;;;;;;;;5067311;28;20017;-91
2021/07/14 05:32:11;;;;;;;66.75;27.80;;;;;;;;;;5052133;28;20017;-91
2021/07/14 05:34:37;;;;;;;70.88;27.75;;;;;;;;;;5052153;28;20463;-90
2021/07/14 05:37:02;;;;;;;66.82;26.23;;;;;;;;;;5053270;28;20021;-91
2021/07/14 05:39:27;;;;;;;65.50;24.33;;;;;;;;;;5069403;28;20479;-89
2021/07/14 05:41:52;;;;;;;67.40;26.27;;;;;;;;;;5056895;28;20032;-93
2021/07/14 05:44:18;;;;;;;62.75;25.88;;;;;;;;;;5068382;28;20032;-90
2021/07/14 05:46:46;;;;;;;61.83;24.15;;;;;;;;;;5057311;28;20020;-91
2021/07/14 05:49:11;;;;;;;56.70;24.08;;;;;;;;;;5056081;28;20037;-91
2021/07/14 05:51:37;;;;;;;67.10;26.55;;;;;;;;;;5056267;28;20518;-91
2021/07/14 05:54:03;;;;;;;69.45;29.73;;;;;;;;;;5056176;28;20028;-91
2021/07/14 05:56:28;;;;;;;68.70;26.23;;;;;;;;;;5052596;28;20049;-92
2021/07/14 05:58:53;;;;;;;62.60;25.67;;;;;;;;;;5056972;28;20104;-92
2021/07/14 06:01:20;;;;;;;73.18;31.90;;;;;;;;;;5058169;28;20043;-96
2021/07/14 06:03:47;;;;;;;56.35;24.42;;;;;;;;;;5056271;28;20475;-91
2021/07/14 06:06:12;;;;;;;67.95;27.48;;;;;;;;;;5055297;28;20103;-91
2021/07/14 06:08:38;;;;;;;71.97;27.33;;;;;;;;;;5055707;28;20052;-91
2021/07/14 06:11:03;;;;;;;59.67;24.73;;;;;;;;;;5056886;28;20025;-90
2021/07/14 06:13:28;;;;;;;71.28;27.25;;;;;;;;;;5056940;28;20041;-89
2021/07/14 06:15:53;;;;;;;63.00;26.65;;;;;;;;;;5057107;28;20394;-90
2021/07/14 06:18:18;;;;;;;73.40;26.45;;;;;;;;;;5055438;28;20531;-89
2021/07/14 06:20:44;;;;;;;68.72;27.88;;;;;;;;;;5054775;28;20052;-89
2021/07/14 06:23:09;;;;;;;74.07;26.50;;;;;;;;;;5055146;28;20095;-89
2021/07/14 06:25:34;;;;;;;63.30;25.38;;;;;;;;;;5056798;28;20013;-89
2021/07/14 06:28:02;;;;;;;64.85;26.65;;;;;;;;;;5054664;28;20058;-89
2021/07/14 06:30:27;;;;;;;71.05;26.20;;;;;;;;;;5056861;28;20055;-89
2021/07/14 06:32:52;;;;;;;67.65;29.90;;;;;;;;;;5054517;28;20468;-89
2021/07/14 06:35:18;;;;;;;62.08;24.13;;;;;;;;;;5054801;28;20515;-89
2021/07/14 06:37:45;;;;;;;65.40;25.92;;;;;;;;;;5052874;28;20132;-89
2021/07/14 06:40:10;;;;;;;58.75;25.20;;;;;;;;;;5054993;28;20028;-89
2021/07/14 06:42:36;;;;;;;63.17;26.10;;;;;;;;;;5054651;28;20017;-89
2021/07/14 06:45:01;;;;;;;60.38;26.63;;;;;;;;;;5055692;28;20518;-87
2021/07/14 06:47:26;;;;;;;59.70;25.50;;;;;;;;;;5054312;28;20056;-91
2021/07/14 06:49:52;;;;;;;50.35;22.25;;;;;;;;;;5051793;28;20076;-91
2021/07/14 06:52:18;;;;;;;59.70;25.67;;;;;;;;;;5054535;28;20021;-90
2021/07/14 06:54:43;;;;;;;51.20;20.30;;;;;;;;;;5058321;28;20121;-90
2021/07/14 06:57:08;;;;;;;51.10;23.65;;;;;;;;;;5056409;28;20027;-89
2021/07/14 06:59:33;;;;;;;57.97;25.13;;;;;;;;;;5054889;28;20021;-91
2021/07/14 07:02:04;;;;;;;54.00;23.27;;;;;;;;;;5069689;28;20016;-90
2021/07/14 07:04:29;;;;;;;51.80;20.73;;;;;;;;;;5055592;28;20020;-90
2021/07/14 07:06:54;;;;;;;48.92;21.98;;;;;;;;;;5054565;28;20021;-90
2021/07/14 07:09:20;;;;;;;55.63;23.17;;;;;;;;;;5054834;28;20013;-91
2021/07/14 07:11:45;;;;;;;51.78;22.00;;;;;;;;;;5054887;28;20112;-90
2021/07/14 07:14:10;;;;;;;50.50;20.75;;;;;;;;;;5056034;28;20024;-90
2021/07/14 07:16:36;;;;;;;54.72;20.90;;;;;;;;;;5056829;28;20402;-90
2021/07/14 07:19:01;;;;;;;46.97;19.92;;;;;;;;;;5062298;28;20060;-87
2021/07/14 07:21:26;;;;;;;49.97;18.95;;;;;;;;;;5059979;28;20023;-88
2021/07/14 07:23:52;;;;;;;49.15;18.98;;;;;;;;;;5069138;28;20021;-87
2021/07/14 07:26:18;;;;;;;51.80;22.52;;;;;;;;;;5052902;28;20047;-88
2021/07/14 07:28:43;;;;;;;56.60;23.40;;;;;;;;;;5052892;28;20025;-89
2021/07/14 07:31:09;;;;;;;55.78;22.42;;;;;;;;;;5056639;28;20021;-88
2021/07/14 07:33:38;;;;;;;53.97;21.48;;;;;;;;;;5053338;28;20021;-89
2021/07/14 07:36:04;;;;;;;48.55;18.70;;;;;;;;;;5067352;28;20431;-90
2021/07/14 07:38:29;;;;;;;51.63;20.52;;;;;;;;;;5053216;28;20021;-89
2021/07/14 07:40:57;;;;;;;54.67;22.55;;;;;;;;;;5053210;28;20029;-89
2021/07/14 07:43:23;;;;;;;53.28;21.60;;;;;;;;;;5071703;28;20024;-88
2021/07/14 07:45:48;;;;;;;55.45;21.70;;;;;;;;;;5063345;28;20024;-88
2021/07/14 07:48:13;;;;;;;45.47;21.95;;;;;;;;;;5070789;28;20024;-88
2021/07/14 07:50:38;;;;;;;50.78;20.92;;;;;;;;;;5068140;28;20021;-89
2021/07/14 07:53:04;;;;;;;41.97;19.63;;;;;;;;;;5063398;28;20029;-89
2021/07/14 07:55:29;;;;;;;50.58;23.20;;;;;;;;;;5070016;28;20025;-89
2021/07/14 07:57:54;;;;;;;53.63;23.05;;;;;;;;;;5054039;28;20031;-88
2021/07/14 08:00:20;;;;;;;47.03;22.17;;;;;;;;;;5052491;28;20049;-88
2021/07/14 08:02:46;;;;;;;46.17;23.40;;;;;;;;;;5054026;28;20437;-89
2021/07/14 08:05:11;;;;;;;46.15;21.35;;;;;;;;;;5065008;28;20086;-89
2021/07/14 08:07:36;;;;;;;53.67;21.40;;;;;;;;;;5073540;28;20059;-89
2021/07/14 08:10:03;;;;;;;50.67;23.15;;;;;;;;;;5072498;28;20468;-89
2021/07/14 08:12:28;;;;;;;45.88;22.38;;;;;;;;;;5070472;28;20016;-89
2021/07/14 08:14:53;;;;;;;48.28;22.48;;;;;;;;;;5052781;28;20112;-90
2021/07/14 08:17:18;;;;;;;53.60;24.90;;;;;;;;;;5054099;28;20029;-89
2021/07/14 08:19:44;;;;;;;53.15;23.10;;;;;;;;;;5058597;28;20380;-89
2021/07/14 08:22:09;;;;;;;47.92;22.52;;;;;;;;;;5060556;28;20017;-89
2021/07/14 08:24:34;;;;;;;50.88;24.23;;;;;;;;;;5052469;28;20020;-89
2021/07/14 08:26:59;;;;;;;57.90;25.15;;;;;;;;;;5052364;28;20021;-89
2021/07/14 08:29:24;;;;;;;55.30;26.20;;;;;;;;;;5068022;28;20107;-89
2021/07/14 08:31:52;;;;;;;48.55;23.23;;;;;;;;;;5064792;28;20024;-90
2021/07/14 08:34:17;;;;;;;50.25;22.50;;;;;;;;;;5052296;28;20032;-89
2021/07/14 08:36:43;;;;;;;51.83;25.23;;;;;;;;;;5072176;28;20032;-89
2021/07/14 08:39:08;;;;;;;50.92;22.88;;;;;;;;;;5060434;28;20010;-89
2021/07/14 08:41:35;;;;;;;43.00;22.23;;;;;;;;;;5051739;28;20021;-88
2021/07/14 08:44:01;;;;;;;54.30;24.58;;;;;;;;;;5052305;28;20021;-89
2021/07/14 08:46:26;;;;;;;55.97;25.73;;;;;;;;;;5053855;28;20544;-89
2021/07/14 08:48:52;;;;;;;50.40;26.27;;;;;;;;;;5064163;28;20017;-89
2021/07/14 08:51:18;;;;;;;52.40;22.85;;;;;;;;;;5063071;28;20031;-89
2021/07/14 08:53:44;;;;;;;61.42;27.55;;;;;;;;;;5069830;28;20067;-89
2021/07/14 08:56:09;;;;;;;64.05;29.95;;;;;;;;;;5060022;28;20036;-89
2021/07/14 08:58:35;;;;;;;63.03;28.40;;;;;;;;;;5057828;28;20013;-90
2021/07/14 09:01:01;;;;;;;74.03;33.72;;;;;;;;;;5057546;28;20016;-89
2021/07/14 09:03:27;;;;;;;69.82;33.55;;;;;;;;;;5061226;28;20095;-89
2021/07/14 09:05:52;;;;;;;61.33;30.10;;;;;;;;;;5065914;28;20564;-89
2021/07/14 09:08:17;;;;;;;63.42;29.05;;;;;;;;;;5061678;28;20024;-89
2021/07/14 09:10:46;;;;;;;56.83;28.67;;;;;;;;;;5069985;28;20044;-89
2021/07/14 09:13:12;;;;;;;67.55;32.05;;;;;;;;;;5051031;28;20039;-89
2021/07/14 09:15:44;;;;;;;66.63;31.17;;;;;;;;;;5051634;28;20111;-89
2021/07/14 09:18:12;;;;;;;52.08;28.15;;;;;;;;;;5052853;28;20052;-89
2021/07/14 09:20:37;;;;;;;58.28;29.17;;;;;;;;;;5052948;28;20368;-90
2021/07/14 09:23:07;;;;;;;57.47;28.38;;;;;;;;;;5066138;28;20017;-90
2021/07/14 09:25:43;;;;;;;60.35;29.23;;;;;;;;;;5065297;28;20415;-89
2021/07/14 09:28:09;;;;;;;59.67;30.27;;;;;;;;;;5052136;28;20075;-89
2021/07/14 09:30:36;;;;;;;66.22;31.40;;;;;;;;;;5051728;28;20021;-89
2021/07/14 09:33:11;;;;;;;57.90;28.13;;;;;;;;;;5052823;28;20094;-90
2021/07/14 09:35:37;;;;;;;67.75;30.92;;;;;;;;;;5051804;28;20033;-89
2021/07/14 09:38:04;;;;;;;60.58;31.08;;;;;;;;;;5054231;28;20119;-89
2021/07/14 09:40:30;;;;;;;61.55;31.27;;;;;;;;;;5063968;28;20017;-89
2021/07/14 09:43:15;;;;;;;60.88;31.15;;;;;;;;;;5052481;28;20526;-89
2021/07/14 09:45:44;;;;;;;56.00;27.75;;;;;;;;;;5040871;28;20033;-89
2021/07/14 09:48:10;;;;;;;59.83;30.55;;;;;;;;;;5053529;28;20056;-89
2021/07/14 09:50:37;;;;;;;56.83;28.63;;;;;;;;;;5067458;28;20106;-89
2021/07/14 09:53:03;;;;;;;50.00;25.95;;;;;;;;;;5051264;28;20104;-89
2021/07/14 09:55:29;;;;;;;55.70;30.77;;;;;;;;;;5053666;28;20021;-89
2021/07/14 09:58:05;;;;;;;56.08;31.92;;;;;;;;;;5071205;28;20539;-89
2021/07/14 10:00:36;;;;;;;55.17;27.73;;;;;;;;;;5055322;28;20019;-89
2021/07/14 10:03:01;;;;;;;60.40;30.07;;;;;;;;;;5060056;28;20074;-89
2021/07/14 10:05:27;;;;;;;54.28;29.00;;;;;;;;;;5072764;28;20724;-90
2021/07/14 10:07:52;;;;;;;51.63;29.05;;;;;;;;;;5066118;28;20104;-89
2021/07/14 10:10:17;;;;;;;45.25;25.23;;;;;;;;;;5064917;28;20016;-89
2021/07/14 10:12:43;;;;;;;56.15;30.02;;;;;;;;;;5052593;28;20036;-90
2021/07/14 10:15:08;;;;;;;58.70;31.15;;;;;;;;;;5061486;28;20048;-90
2021/07/14 10:17:37;;;;;;;53.08;30.15;;;;;;;;;;5058065;28;20017;-89
2021/07/14 10:20:25;;;;;;;53.35;29.48;;;;;;;;;;5071370;28;20031;-90
2021/07/14 10:22:55;;;;;;;56.42;30.45;;;;;;;;;;5067390;28;20124;-89
2021/07/14 10:25:21;;;;;;;53.05;30.05;;;;;;;;;;5062530;28;20495;-88
2021/07/14 10:27:47;;;;;;;50.78;29.20;;;;;;;;;;5061739;28;20048;-89
2021/07/14 10:30:13;;;;;;;61.30;31.08;;;;;;;;;;5074503;28;20016;-90
2021/07/14 10:32:40;;;;;;;61.90;30.80;;;;;;;;;;5060204;28;20031;-89
2021/07/14 10:35:05;;;;;;;56.28;31.30;;;;;;;;;;5054518;28;20029;-88
2021/07/14 10:37:31;;;;;;;54.10;30.80;;;;;;;;;;5059478;28;20518;-89
2021/07/14 10:39:56;;;;;;;58.97;30.58;;;;;;;;;;5058969;28;20017;-89
2021/07/14 10:42:21;;;;;;;60.85;30.23;;;;;;;;;;5053850;28;20017;-89
2021/07/14 10:44:47;;;;;;;58.88;32.83;;;;;;;;;;5054287;28;20028;-89
2021/07/14 10:47:12;;;;;;;59.03;33.30;;;;;;;;;;5056703;28;20498;-89
2021/07/14 10:49:39;;;;;;;56.70;31.20;;;;;;;;;;5053965;28;20346;-90
2021/07/14 10:52:04;;;;;;;47.80;26.52;;;;;;;;;;5055064;28;20052;-89
2021/07/14 10:54:29;;;;;;;53.40;28.73;;;;;;;;;;5062352;28;20032;-89
2021/07/14 10:56:55;;;;;;;57.55;30.38;;;;;;;;;;5054149;28;20512;-89
2021/07/14 10:59:21;;;;;;;52.92;29.25;;;;;;;;;;5069568;28;20016;-89
2021/07/14 11:01:48;;;;;;;54.33;29.85;;;;;;;;;;5057867;28;20028;-89
2021/07/14 11:04:16;;;;;;;47.10;29.00;;;;;;;;;;5072249;28;20016;-89
2021/07/14 11:06:58;;;;;;;56.88;29.67;;;;;;;;;;5074134;28;20065;-89
2021/07/14 11:09:37;;;;;;;53.70;27.55;;;;;;;;;;5054834;28;20017;-88
2021/07/14 11:12:03;;;;;;;53.33;27.73;;;;;;;;;;5046379;28;20021;-89
2021/07/14 11:14:38;;;;;;;59.22;28.45;;;;;;;;;;5054139;28;20096;-89
2021/07/14 11:17:04;;;;;;;57.42;32.47;;;;;;;;;;5042900;28;20036;-89
2021/07/14 11:19:49;;;;;;;59.08;31.10;;;;;;;;;;5054208;28;20009;-90
2021/07/14 11:22:16;;;;;;;52.45;30.83;;;;;;;;;;5053666;28;20027;-89
2021/07/14 11:24:48;;;;;;;55.28;30.48;;;;;;;;;;5062379;28;20009;-88
2021/07/14 11:27:22;;;;;;;53.28;28.92;;;;;;;;;;5074448;28;20025;-89
2021/07/14 11:30:14;;;;;;;50.08;28.73;;;;;;;;;;5064636;28;20087;-89
2021/07/14 11:32:42;;;;;;;47.70;28.05;;;;;;;;;;5064394;28;20033;-89
2021/07/14 11:35:07;;;;;;;50.35;29.00;;;;;;;;;;5055336;28;20428;-89
2021/07/14 11:37:34;;;;;;;49.47;28.20;;;;;;;;;;5052883;28;20020;-89
2021/07/14 11:40:17;;;;;;;47.63;28.48;;;;;;;;;;5053734;28;20476;-89
2021/07/14 11:42:48;;;;;;;48.22;26.92;;;;;;;;;;5053484;28;20094;-89
2021/07/14 11:45:14;;;;;;;44.78;23.75;;;;;;;;;;5053693;28;20398;-89
2021/07/14 11:47:40;;;;;;;42.65;25.15;;;;;;;;;;5054563;28;20128;-89
2021/07/14 11:50:06;;;;;;;44.85;24.23;;;;;;;;;;5056294;28;20096;-90
2021/07/14 11:52:40;;;;;;;39.75;23.50;;;;;;;;;;5053708;28;20124;-90
2021/07/14 11:55:23;;;;;;;39.90;22.80;;;;;;;;;;5066586;28;20052;-89
2021/07/14 11:57:49;;;;;;;40.58;22.83;;;;;;;;;;5052468;28;20021;-89
2021/07/14 12:00:15;;;;;;;41.65;23.55;;;;;;;;;;5067253;28;20048;-90
2021/07/14 12:02:51;;;;;;;43.20;24.33;;;;;;;;;;5053673;28;20095;-89
2021/07/14 12:05:16;;;;;;;43.70;26.75;;;;;;;;;;5054311;28;20013;-89
2021/07/14 12:07:42;;;;;;;34.53;18.52;;;;;;;;;;5052476;28;20028;-90
2021/07/14 12:10:25;;;;;;;41.78;24.60;;;;;;;;;;5053874;28;20032;-89
2021/07/14 12:12:50;;;;;;;43.70;25.10;;;;;;;;;;5053566;28;20020;-89
2021/07/14 12:15:16;;;;;;;39.13;21.83;;;;;;;;;;5053284;28;20017;-89
2021/07/14 12:17:41;;;;;;;41.47;22.17;;;;;;;;;;5054093;28;20017;-87
2021/07/14 12:20:06;;;;;;;39.35;21.63;;;;;;;;;;5054342;28;20024;-90
2021/07/14 12:22:35;;;;;;;39.67;22.10;;;;;;;;;;5066987;28;20024;-89
2021/07/14 12:25:03;;;;;;;40.60;20.95;;;;;;;;;;5054154;28;20036;-89
2021/07/14 12:27:38;;;;;;;36.55;21.52;;;;;;;;;;5053014;28;20510;-89
2021/07/14 12:30:11;;;;;;;36.35;20.60;;;;;;;;;;5040266;28;20490;-89
2021/07/14 12:32:37;;;;;;;37.47;20.60;;;;;;;;;;5052929;28;20060;-89
2021/07/14 12:35:07;;;;;;;38.47;20.30;;;;;;;;;;5047639;28;20028;-89
2021/07/14 12:37:34;;;;;;;29.15;16.95;;;;;;;;;;5060029;28;20415;-89
2021/07/14 12:39:59;;;;;;;31.90;16.42;;;;;;;;;;5071564;28;20542;-89
2021/07/14 12:42:24;;;;;;;31.30;18.30;;;;;;;;;;5062000;28;20041;-89
2021/07/14 12:44:50;;;;;;;35.55;15.68;;;;;;;;;;5052456;28;20103;-89
2021/07/14 12:47:20;;;;;;;27.75;16.33;;;;;;;;;;5052760;28;20033;-89
2021/07/14 12:49:45;;;;;;;28.45;15.77;;;;;;;;;;5054801;28;20028;-89
2021/07/14 12:52:15;;;;;;;33.13;16.88;;;;;;;;;;5055736;28;20612;-89
2021/07/14 12:54:41;;;;;;;29.27;17.30;;;;;;;;;;5053263;28;20066;-89
2021/07/14 12:57:06;;;;;;;31.73;17.77;;;;;;;;;;5054893;28;20155;-89
2021/07/14 12:59:32;;;;;;;32.33;15.88;;;;;;;;;;5054327;28;20021;-89
2021/07/14 13:01:57;;;;;;;38.83;19.00;;;;;;;;;;5054073;28;20028;-89
2021/07/14 13:04:22;;;;;;;37.47;18.13;;;;;;;;;;5057792;28;20066;-89
2021/07/14 13:06:48;;;;;;;39.28;19.88;;;;;;;;;;5061330;28;20021;-89
2021/07/14 13:09:13;;;;;;;39.78;18.38;;;;;;;;;;5056302;28;20486;-89
2021/07/14 13:11:39;;;;;;;38.45;20.83;;;;;;;;;;5064350;28;20020;-89
2021/07/14 13:14:05;;;;;;;38.30;19.25;;;;;;;;;;5053116;28;20031;-89
2021/07/14 13:16:31;;;;;;;39.25;20.40;;;;;;;;;;5052780;28;20021;-89
2021/07/14 13:19:00;;;;;;;39.55;19.45;;;;;;;;;;5052848;28;20027;-89
2021/07/14 13:21:26;;;;;;;36.72;20.88;;;;;;;;;;5053776;28;20043;-89
2021/07/14 13:24:01;;;;;;;39.60;19.90;;;;;;;;;;5052463;28;20059;-89
2021/07/14 13:26:26;;;;;;;40.40;20.95;;;;;;;;;;5052807;28;20439;-89
2021/07/14 13:28:52;;;;;;;38.45;20.02;;;;;;;;;;5065115;28;20021;-89
2021/07/14 13:31:27;;;;;;;41.40;20.52;;;;;;;;;;5054671;28;20064;-89
2021/07/14 13:34:18;;;;;;;39.15;20.05;;;;;;;;;;5041999;28;20036;-89
2021/07/14 13:36:46;;;;;;;46.00;21.13;;;;;;;;;;5055448;28;20056;-89
2021/07/14 13:39:16;;;;;;;43.88;23.00;;;;;;;;;;5051097;28;20120;-89
2021/07/14 13:41:43;;;;;;;42.00;20.83;;;;;;;;;;5052774;28;20418;-88
2021/07/14 13:44:09;;;;;;;39.92;22.05;;;;;;;;;;5062358;28;20025;-87
2021/07/14 13:46:37;;;;;;;41.78;21.35;;;;;;;;;;5068163;28;20029;-88
2021/07/14 13:49:12;;;;;;;44.45;21.50;;;;;;;;;;5061160;28;20067;-89
2021/07/14 13:51:38;;;;;;;43.65;24.02;;;;;;;;;;5058773;28;20013;-89
2021/07/14 13:54:22;;;;;;;50.88;22.45;;;;;;;;;;5051124;28;20070;-90
2021/07/14 13:56:51;;;;;;;44.75;22.00;;;;;;;;;;5058880;28;20082;-88
2021/07/14 13:59:31;;;;;;;38.00;20.25;;;;;;;;;;5052348;28;20116;-88
2021/07/14 14:02:10;;;;;;;42.72;19.92;;;;;;;;;;5054618;28;20112;-88
2021/07/14 14:04:41;;;;;;;38.85;19.10;;;;;;;;;;5058461;28;20032;-89
2021/07/14 14:07:19;;;;;;;33.43;16.10;;;;;;;;;;5060528;28;20483;-89
2021/07/14 14:09:58;;;;;;;33.58;16.73;;;;;;;;;;5054984;28;20625;-88
2021/07/14 14:12:30;;;;;;;33.67;18.83;;;;;;;;;;5057136;28;20453;-88
2021/07/14 14:14:56;;;;;;;35.83;19.67;;;;;;;;;;5055854;28;20032;-88
2021/07/14 14:17:22;;;;;;;33.65;18.92;;;;;;;;;;5054433;28;20029;-88
2021/07/14 14:19:48;;;;;;;34.22;18.60;;;;;;;;;;5054468;28;20457;-88